createdAt,value
2023-04-26T00:02:51.058Z,5.34
2023-04-26T00:05:52.767Z,5.26
2023-04-26T00:08:55.006Z,5.35
2023-04-26T00:11:57.089Z,5.43
2023-04-26T00:14:58.825Z,5.44
2023-04-26T00:18:00.793Z,5.35
2023-04-26T00:21:05.149Z,5.40
2023-04-26T00:24:07.278Z,5.28
2023-04-26T00:27:10.540Z,5.31
2023-04-26T00:30:12.556Z,5.27
2023-04-26T00:33:14.393Z,5.22
2023-04-26T00:36:19.204Z,5.11
2023-04-26T00:39:22.239Z,5.14
2023-04-26T00:42:23.873Z,5.00
2023-04-26T00:45:25.543Z,5.08
2023-04-26T00:48:27.161Z,5.27
2023-04-26T00:51:28.800Z,5.24
2023-04-26T00:54:30.337Z,5.22
2023-04-26T00:57:31.878Z,5.20
2023-04-26T01:00:33.401Z,5.22
2023-04-26T01:03:35.195Z,5.17
2023-04-26T01:06:38.569Z,5.07
2023-04-26T01:09:40.328Z,5.13
2023-04-26T01:12:42.116Z,5.12
2023-04-26T01:15:47.002Z,5.07
2023-04-26T01:18:53.159Z,5.00
2023-04-26T01:21:54.885Z,4.93
2023-04-26T01:24:56.482Z,4.86
2023-04-26T01:27:58.125Z,4.93
2023-04-26T01:30:59.833Z,4.84
2023-04-26T01:34:01.547Z,4.87
2023-04-26T01:37:03.083Z,4.88
2023-04-26T01:40:08.036Z,4.79
2023-04-26T01:43:09.578Z,4.80
2023-04-26T01:46:11.253Z,4.76
2023-04-26T01:49:12.836Z,4.79
2023-04-26T01:52:14.435Z,4.80
2023-04-26T01:55:16.041Z,4.73
2023-04-26T01:58:17.683Z,4.75
2023-04-26T02:01:19.484Z,4.76
2023-04-26T02:04:21.620Z,4.79
2023-04-26T02:07:23.215Z,4.73
2023-04-26T02:10:24.872Z,4.75
2023-04-26T02:13:27.004Z,4.82
2023-04-26T02:16:28.655Z,4.64
2023-04-26T02:19:31.023Z,4.58
2023-04-26T02:22:32.609Z,4.55
2023-04-26T02:25:34.130Z,4.53
2023-04-26T02:28:35.668Z,4.62
2023-04-26T02:31:37.242Z,4.67
2023-04-26T02:34:39.167Z,4.64
2023-04-26T02:37:40.787Z,4.58
2023-04-26T02:40:42.398Z,4.54
2023-04-26T02:43:44.135Z,4.52
2023-04-26T02:46:45.866Z,4.47
2023-04-26T02:49:47.742Z,4.27
2023-04-26T02:52:49.425Z,4.36
2023-04-26T02:55:51.350Z,4.37
2023-04-26T02:58:53.046Z,4.47
2023-04-26T03:01:54.819Z,4.55
2023-04-26T03:04:56.491Z,4.56
2023-04-26T03:07:58.085Z,4.46
2023-04-26T03:10:59.779Z,4.56
2023-04-26T03:14:01.372Z,4.52
2023-04-26T03:17:03.026Z,4.47
2023-04-26T03:20:07.051Z,4.39
2023-04-26T03:23:08.690Z,4.35
2023-04-26T03:26:10.842Z,4.41
2023-04-26T03:29:12.576Z,4.45
2023-04-26T03:32:14.376Z,4.50
2023-04-26T03:35:16.197Z,4.36
2023-04-26T03:38:17.915Z,4.40
2023-04-26T03:41:19.487Z,4.40
2023-04-26T03:44:21.166Z,4.43
2023-04-26T03:47:22.824Z,4.41
2023-04-26T03:50:24.366Z,4.49
2023-04-26T03:53:25.996Z,4.53
2023-04-26T03:56:27.626Z,4.45
2023-04-26T03:59:29.153Z,4.30
2023-04-26T04:02:31.581Z,4.25
2023-04-26T04:05:33.162Z,4.29
2023-04-26T04:08:36.909Z,4.24
2023-04-26T04:11:38.498Z,4.19
2023-04-26T04:14:40.093Z,4.11
2023-04-26T04:17:41.728Z,4.11
2023-04-26T04:20:43.375Z,4.19
2023-04-26T04:23:44.925Z,4.32
2023-04-26T04:26:46.588Z,4.29
2023-04-26T04:29:48.532Z,4.32
2023-04-26T04:32:50.189Z,4.31
2023-04-26T04:35:52.506Z,4.33
2023-04-26T04:38:54.590Z,4.26
2023-04-26T04:41:56.487Z,4.23
2023-04-26T04:44:59.565Z,4.30
2023-04-26T04:48:01.376Z,4.24
2023-04-26T04:51:03.060Z,4.21
2023-04-26T04:54:18.135Z,4.19
2023-04-26T04:57:20.246Z,4.16
2023-04-26T05:00:21.938Z,4.03
2023-04-26T05:03:23.827Z,4.07
2023-04-26T05:06:27.561Z,4.14
2023-04-26T05:09:29.188Z,4.21
2023-04-26T05:12:30.792Z,4.31
2023-04-26T05:15:32.408Z,4.25
2023-04-26T05:18:33.969Z,4.28
2023-04-26T05:21:35.557Z,4.29
2023-04-26T05:24:37.079Z,4.11
2023-04-26T05:27:38.687Z,4.06
2023-04-26T05:30:42.470Z,4.01
2023-04-26T05:33:44.072Z,3.95
2023-04-26T05:36:45.773Z,4.04
2023-04-26T05:39:47.356Z,4.24
2023-04-26T05:42:50.073Z,4.29
2023-04-26T05:45:55.838Z,4.40
2023-04-26T05:48:57.548Z,4.47
2023-04-26T05:51:59.881Z,4.71
2023-04-26T05:55:04.851Z,4.85
2023-04-26T05:58:06.618Z,5.06
2023-04-26T06:01:08.823Z,5.05
2023-04-26T06:04:10.957Z,5.05
2023-04-26T06:07:12.884Z,5.10
2023-04-26T06:10:14.501Z,5.23
2023-04-26T06:13:16.402Z,5.09
2023-04-26T06:16:18.052Z,5.18
2023-04-26T06:19:19.663Z,5.26
2023-04-26T06:22:21.295Z,5.48
2023-04-26T06:25:22.972Z,5.69
2023-04-26T06:28:26.960Z,5.82
2023-04-26T06:31:28.567Z,5.89
2023-04-26T06:34:30.579Z,5.83
2023-04-26T06:37:32.226Z,5.86
2023-04-26T06:40:34.062Z,5.90
2023-04-26T06:43:36.063Z,5.90
2023-04-26T06:46:39.954Z,5.83
2023-04-26T06:49:42.270Z,5.94
2023-04-26T06:52:44.002Z,6.09
2023-04-26T06:55:46.142Z,5.97
2023-04-26T06:59:03.396Z,6.18
2023-04-26T07:02:05.194Z,6.26
2023-04-26T07:05:07.250Z,6.27
2023-04-26T07:08:14.838Z,6.35
2023-04-26T07:11:16.685Z,6.30
2023-04-26T07:14:19.024Z,6.40
2023-04-26T07:17:21.730Z,6.40
2023-04-26T07:20:25.980Z,6.37
2023-04-26T07:23:29.442Z,6.21
2023-04-26T07:26:31.484Z,6.40
2023-04-26T07:29:33.144Z,6.58
2023-04-26T07:32:37.393Z,6.78
2023-04-26T07:35:39.094Z,7.26
2023-04-26T07:38:42.988Z,7.31
2023-04-26T07:41:44.768Z,7.47
2023-04-26T07:44:48.346Z,7.51
2023-04-26T07:47:50.024Z,7.71
2023-04-26T07:50:52.140Z,8.02
2023-04-26T07:53:55.640Z,7.73
2023-04-26T07:56:57.361Z,8.18
2023-04-26T07:59:59.027Z,8.36
2023-04-26T08:03:00.998Z,8.42
2023-04-26T08:06:03.136Z,8.27
2023-04-26T08:09:05.287Z,8.32
2023-04-26T08:12:07.329Z,8.36
2023-04-26T08:15:09.624Z,8.67
2023-04-26T08:18:11.341Z,8.74
2023-04-26T08:21:12.971Z,9.68
2023-04-26T08:24:14.802Z,9.93
2023-04-26T08:27:19.307Z,9.60
2023-04-26T08:30:21.471Z,9.61
2023-04-26T08:33:23.006Z,9.57
2023-04-26T08:36:24.642Z,9.40
2023-04-26T08:39:26.241Z,9.69
2023-04-26T08:42:28.542Z,9.84
2023-04-26T08:45:30.204Z,9.76
2023-04-26T08:48:31.902Z,9.47
2023-04-26T08:51:33.936Z,9.31
2023-04-26T08:54:36.998Z,9.19
2023-04-26T08:57:38.790Z,9.04
2023-04-26T09:00:40.444Z,8.94
2023-04-26T09:03:42.353Z,8.53
2023-04-26T09:06:44.553Z,8.58
2023-04-26T09:09:48.121Z,8.08
2023-04-26T09:12:53.502Z,7.94
2023-04-26T09:16:01.962Z,7.77
2023-04-26T09:19:06.075Z,7.57
2023-04-26T09:22:08.927Z,7.57
2023-04-26T09:25:11.446Z,7.66
2023-04-26T09:28:21.125Z,7.68
2023-04-26T09:31:42.678Z,7.80
2023-04-26T09:34:45.632Z,7.78
2023-04-26T09:38:02.969Z,7.71
2023-04-26T09:41:07.466Z,7.68
2023-04-26T09:44:21.035Z,7.89
2023-04-26T09:47:22.902Z,8.21
2023-04-26T09:50:31.058Z,8.45
2023-04-26T09:53:40.398Z,8.90
2023-04-26T09:56:41.944Z,8.84
2023-04-26T09:59:44.830Z,8.56
2023-04-26T10:02:46.462Z,9.07
2023-04-26T10:05:48.208Z,9.03
2023-04-26T10:08:56.573Z,9.84
2023-04-26T10:12:01.660Z,10.03
2023-04-26T10:15:03.761Z,10.21
2023-04-26T10:18:05.626Z,10.34
2023-04-26T10:21:19.227Z,10.42
2023-04-26T10:24:20.835Z,11.22
2023-04-26T10:27:44.396Z,11.49
2023-04-26T10:30:57.761Z,11.58
2023-04-26T10:34:18.886Z,11.17
2023-04-26T10:37:20.508Z,12.15
2023-04-26T10:40:27.368Z,11.64
2023-04-26T10:43:29.223Z,11.07
2023-04-26T10:46:51.261Z,10.59
2023-04-26T10:49:53.253Z,10.64
2023-04-26T10:53:01.990Z,10.86
2023-04-26T10:56:04.336Z,10.63
2023-04-26T10:59:30.657Z,11.02
2023-04-26T11:02:55.253Z,12.46
2023-04-26T11:05:58.861Z,13.35
2023-04-26T11:09:00.451Z,13.33
2023-04-26T11:12:04.353Z,12.89
2023-04-26T11:15:06.389Z,12.21
2023-04-26T11:18:08.378Z,12.14
2023-04-26T11:21:10.031Z,11.87
2023-04-26T11:24:11.876Z,12.06
2023-04-26T11:27:13.417Z,12.19
2023-04-26T11:30:15.048Z,12.56
2023-04-26T11:33:25.825Z,11.44
2023-04-26T11:36:27.512Z,11.56
2023-04-26T11:39:29.291Z,11.39
2023-04-26T11:42:31.181Z,11.76
2023-04-26T11:45:34.219Z,12.17
2023-04-26T11:48:36.262Z,11.59
2023-04-26T11:51:37.780Z,11.63
2023-04-26T11:54:39.489Z,11.44
2023-04-26T11:57:41.255Z,11.60
2023-04-26T12:00:56.312Z,12.13
2023-04-26T12:03:59.049Z,11.59
2023-04-26T12:07:00.894Z,12.19
2023-04-26T12:10:21.134Z,11.68
2023-04-26T12:13:22.869Z,11.51
2023-04-26T12:16:26.833Z,11.54
2023-04-26T12:19:36.770Z,11.54
2023-04-26T12:22:41.110Z,11.72
2023-04-26T12:25:52.619Z,11.64
2023-04-26T12:28:54.195Z,11.63
2023-04-26T12:31:55.912Z,11.69
2023-04-26T12:34:59.944Z,11.58
2023-04-26T12:38:01.790Z,11.40
2023-04-26T12:41:03.580Z,11.45
2023-04-26T12:44:05.527Z,11.43
2023-04-26T12:47:07.170Z,11.52
2023-04-26T12:50:09.233Z,11.98
2023-04-26T12:53:14.042Z,12.37
2023-04-26T12:56:16.449Z,12.22
2023-04-26T12:59:18.102Z,12.35
2023-04-26T13:02:19.689Z,12.02
2023-04-26T13:05:24.641Z,12.12
2023-04-26T13:08:26.229Z,12.37
2023-04-26T13:11:32.399Z,12.21
2023-04-26T13:14:43.447Z,12.24
2023-04-26T13:17:50.239Z,12.13
2023-04-26T13:20:52.046Z,12.68
2023-04-26T13:23:53.639Z,12.60
2023-04-26T13:26:55.571Z,11.87
2023-04-26T13:29:57.173Z,11.77
2023-04-26T13:33:00.481Z,11.62
2023-04-26T13:36:02.311Z,11.41
2023-04-26T13:39:05.246Z,11.65
2023-04-26T13:42:07.107Z,11.86
2023-04-26T13:45:17.004Z,12.23
2023-04-26T13:48:19.820Z,13.09
2023-04-26T13:51:30.760Z,12.72
2023-04-26T13:54:32.439Z,12.41
2023-04-26T13:57:39.833Z,12.35
2023-04-26T14:00:44.065Z,12.24
2023-04-26T14:03:55.589Z,12.24
2023-04-26T14:07:06.381Z,11.72
2023-04-26T14:10:08.397Z,11.78
2023-04-26T14:13:10.170Z,11.94
2023-04-26T14:16:11.775Z,11.71
2023-04-26T14:19:15.417Z,11.66
2023-04-26T14:22:17.771Z,11.68
2023-04-26T14:25:22.563Z,11.50
2023-04-26T14:28:24.214Z,11.45
2023-04-26T14:31:26.378Z,11.52
2023-04-26T14:34:27.882Z,11.89
2023-04-26T14:37:29.463Z,11.67
2023-04-26T14:40:31.047Z,12.32
2023-04-26T14:43:35.921Z,12.62
2023-04-26T14:46:37.543Z,12.82
2023-04-26T14:49:39.098Z,13.45
2023-04-26T14:52:40.799Z,13.78
2023-04-26T14:55:42.377Z,13.91
2023-04-26T14:58:44.088Z,14.27
2023-04-26T15:01:45.758Z,14.07
2023-04-26T15:04:47.614Z,13.59
2023-04-26T15:07:49.229Z,13.69
2023-04-26T15:10:51.474Z,13.13
2023-04-26T15:13:53.063Z,13.03
2023-04-26T15:16:54.683Z,12.88
2023-04-26T15:19:58.966Z,12.82
2023-04-26T15:23:02.668Z,12.78
2023-04-26T15:26:04.526Z,12.69
2023-04-26T15:29:06.113Z,12.91
2023-04-26T15:32:07.674Z,12.72
2023-04-26T15:35:12.826Z,12.63
2023-04-26T15:38:14.405Z,12.34
2023-04-26T15:41:16.106Z,12.32
2023-04-26T15:44:17.757Z,12.34
2023-04-26T15:47:22.637Z,12.32
2023-04-26T15:50:24.265Z,12.14
2023-04-26T15:53:25.831Z,12.63
2023-04-26T15:56:28.781Z,12.32
2023-04-26T15:59:30.783Z,12.85
2023-04-26T16:02:35.230Z,12.83
2023-04-26T16:05:39.825Z,12.95
2023-04-26T16:08:41.525Z,12.71
2023-04-26T16:11:43.287Z,12.50
2023-04-26T16:14:48.832Z,12.55
2023-04-26T16:17:50.468Z,12.33
2023-04-26T16:20:52.359Z,12.19
2023-04-26T16:23:57.120Z,12.33
2023-04-26T16:26:58.810Z,12.53
2023-04-26T16:30:00.582Z,12.33
2023-04-26T16:33:04.520Z,12.32
2023-04-26T16:36:06.586Z,12.33
2023-04-26T16:39:08.268Z,12.40
2023-04-26T16:42:09.950Z,12.27
2023-04-26T16:45:25.888Z,12.36
2023-04-26T16:48:29.920Z,12.30
2023-04-26T16:51:38.856Z,12.10
2023-04-26T16:54:40.414Z,12.12
2023-04-26T16:57:42.479Z,11.94
2023-04-26T17:00:45.638Z,12.15
2023-04-26T17:03:47.713Z,12.00
2023-04-26T17:06:50.976Z,12.04
2023-04-26T17:09:54.640Z,11.80
2023-04-26T17:12:56.357Z,11.79
2023-04-26T17:15:59.339Z,11.66
2023-04-26T17:19:01.022Z,11.60
2023-04-26T17:22:02.958Z,11.73
2023-04-26T17:25:05.000Z,11.59
2023-04-26T17:28:06.771Z,11.52
2023-04-26T17:31:08.490Z,11.45
2023-04-26T17:34:19.862Z,11.24
2023-04-26T17:37:30.525Z,11.03
2023-04-26T17:40:35.810Z,10.54
2023-04-26T17:43:37.516Z,10.29
2023-04-26T17:46:39.174Z,10.47
2023-04-26T17:49:40.735Z,9.97
2023-04-26T17:52:45.596Z,10.00
2023-04-26T17:55:47.434Z,9.88
2023-04-26T17:58:49.233Z,9.60
2023-04-26T18:01:51.207Z,9.27
2023-04-26T18:04:53.521Z,9.28
2023-04-26T18:07:55.408Z,9.33
2023-04-26T18:10:57.990Z,8.97
2023-04-26T18:14:01.740Z,8.80
2023-04-26T18:17:04.504Z,8.94
2023-04-26T18:20:06.784Z,8.86
2023-04-26T18:23:08.228Z,8.92
2023-04-26T18:26:10.942Z,8.68
2023-04-26T18:29:15.402Z,8.63
2023-04-26T18:32:40.843Z,8.43
2023-04-26T18:35:45.481Z,8.46
2023-04-26T18:38:47.236Z,8.29
2023-04-26T18:41:52.126Z,8.13
2023-04-26T18:44:53.855Z,8.09
2023-04-26T18:47:56.282Z,8.06
2023-04-26T18:50:57.850Z,8.03
2023-04-26T18:54:17.270Z,8.01
2023-04-26T18:57:25.224Z,7.86
2023-04-26T19:00:26.943Z,7.92
2023-04-26T19:03:28.648Z,8.09
2023-04-26T19:06:43.112Z,8.15
2023-04-26T19:09:53.516Z,8.07
2023-04-26T19:12:55.949Z,7.95
2023-04-26T19:15:57.661Z,7.80
2023-04-26T19:18:59.261Z,7.92
2023-04-26T19:22:35.257Z,8.02
2023-04-26T19:25:36.959Z,7.96
2023-04-26T19:28:38.572Z,8.07
2023-04-26T19:31:47.962Z,8.09
2023-04-26T19:34:52.896Z,8.00
2023-04-26T19:37:56.436Z,7.95
2023-04-26T19:40:58.004Z,7.92
2023-04-26T19:44:03.237Z,7.79
2023-04-26T19:47:25.442Z,7.92
2023-04-26T19:50:33.068Z,7.95
2023-04-26T19:53:35.435Z,7.96
2023-04-26T19:56:48.158Z,8.01
2023-04-26T19:59:51.466Z,7.83
2023-04-26T20:02:53.274Z,7.80
2023-04-26T20:05:55.186Z,7.73
2023-04-26T20:08:56.866Z,7.67
2023-04-26T20:11:58.552Z,7.72
2023-04-26T20:15:00.321Z,7.78
2023-04-26T20:18:02.439Z,7.74
2023-04-26T20:21:04.931Z,7.72
2023-04-26T20:24:07.040Z,7.65
2023-04-26T20:27:08.671Z,7.66
2023-04-26T20:30:33.187Z,7.60
2023-04-26T20:33:34.847Z,7.60
2023-04-26T20:36:37.980Z,7.59
2023-04-26T20:39:45.672Z,7.42
2023-04-26T20:42:47.250Z,7.37
2023-04-26T20:45:48.845Z,7.31
2023-04-26T20:48:52.566Z,7.23
2023-04-26T20:51:54.258Z,7.23
2023-04-26T20:54:58.208Z,7.31
2023-04-26T20:57:59.894Z,7.27
2023-04-26T21:01:01.722Z,7.30
2023-04-26T21:04:03.759Z,7.30
2023-04-26T21:07:05.583Z,7.30
2023-04-26T21:10:08.034Z,7.33
2023-04-26T21:13:09.630Z,7.33
2023-04-26T21:16:11.359Z,7.31
2023-04-26T21:19:13.007Z,7.25
2023-04-26T21:22:14.682Z,7.19
2023-04-26T21:25:19.993Z,7.21
2023-04-26T21:28:22.031Z,7.19
2023-04-26T21:31:23.710Z,7.19
2023-04-26T21:34:25.369Z,7.05
2023-04-26T21:37:26.994Z,7.00
2023-04-26T21:40:28.601Z,6.89
2023-04-26T21:43:30.794Z,6.89
2023-04-26T21:46:32.474Z,6.95
2023-04-26T21:49:34.735Z,6.97
2023-04-26T21:52:36.351Z,6.93
2023-04-26T21:55:37.943Z,6.87
2023-04-26T21:58:39.463Z,6.87
2023-04-26T22:01:41.331Z,6.85
2023-04-26T22:04:42.850Z,6.77
2023-04-26T22:07:44.396Z,6.73
2023-04-26T22:10:46.164Z,6.66
2023-04-26T22:13:47.687Z,6.55
2023-04-26T22:16:53.566Z,6.51
2023-04-26T22:19:55.629Z,6.52
2023-04-26T22:22:57.156Z,6.59
2023-04-26T22:26:01.353Z,6.64
2023-04-26T22:29:03.112Z,6.69
2023-04-26T22:32:04.800Z,6.62
2023-04-26T22:35:07.245Z,6.67
2023-04-26T22:38:08.720Z,6.65
2023-04-26T22:41:10.769Z,6.61
2023-04-26T22:44:15.046Z,6.51
2023-04-26T22:47:18.589Z,6.56
2023-04-26T22:50:20.429Z,6.58
2023-04-26T22:53:21.956Z,6.43
2023-04-26T22:56:23.553Z,6.42
2023-04-26T22:59:25.118Z,6.45
2023-04-26T23:02:26.765Z,6.28
2023-04-26T23:05:28.386Z,6.35
2023-04-26T23:08:29.955Z,6.41
2023-04-26T23:11:31.658Z,6.48
2023-04-26T23:14:33.638Z,6.47
2023-04-26T23:17:35.492Z,6.44
2023-04-26T23:20:37.097Z,6.48
2023-04-26T23:23:41.025Z,6.55
2023-04-26T23:26:42.570Z,6.65
2023-04-26T23:29:44.084Z,6.49
2023-04-26T23:32:45.826Z,6.35
2023-04-26T23:35:47.438Z,6.35
2023-04-26T23:38:49.048Z,6.32
2023-04-26T23:41:50.575Z,6.28
2023-04-26T23:44:52.086Z,6.20
2023-04-26T23:47:54.338Z,6.34
2023-04-26T23:50:56.016Z,6.37
2023-04-26T23:53:57.573Z,6.30
2023-04-26T23:57:03.995Z,6.24
